createdAt,value
2023-03-06T00:00:23.586Z,11.37
2023-03-06T00:00:57.906Z,12.00
2023-03-06T00:01:30.235Z,9.57
2023-03-06T00:02:02.544Z,12.13
2023-03-06T00:02:34.917Z,11.10
2023-03-06T00:03:07.221Z,13.10
2023-03-06T00:03:39.742Z,10.70
2023-03-06T00:04:12.186Z,11.40
2023-03-06T00:04:44.489Z,13.73
2023-03-06T00:05:17.009Z,11.95
2023-03-06T00:05:49.522Z,14.23
2023-03-06T00:06:21.910Z,13.15
2023-03-06T00:06:54.391Z,12.65
2023-03-06T00:07:26.701Z,10.23
2023-03-06T00:07:59.253Z,11.95
2023-03-06T00:08:31.525Z,11.95
2023-03-06T00:09:03.935Z,8.73
2023-03-06T00:09:36.429Z,8.90
2023-03-06T00:10:09.233Z,10.05
2023-03-06T00:10:41.514Z,9.40
2023-03-06T00:11:15.696Z,8.90
2023-03-06T00:11:48.095Z,9.48
2023-03-06T00:12:20.502Z,10.25
2023-03-06T00:12:54.069Z,11.00
2023-03-06T00:13:30.206Z,8.50
2023-03-06T00:14:02.800Z,10.23
2023-03-06T00:14:35.222Z,11.43
2023-03-06T00:15:07.941Z,11.02
2023-03-06T00:15:40.490Z,9.52
2023-03-06T00:16:12.816Z,12.75
2023-03-06T00:16:45.168Z,13.03
2023-03-06T00:17:17.460Z,10.18
2023-03-06T00:17:49.941Z,11.77
2023-03-06T00:18:22.239Z,8.02
2023-03-06T00:18:54.583Z,10.88
2023-03-06T00:19:27.725Z,7.97
2023-03-06T00:19:59.990Z,9.13
2023-03-06T00:20:32.713Z,9.85
2023-03-06T00:21:08.834Z,9.55
2023-03-06T00:21:42.027Z,9.20
2023-03-06T00:22:15.203Z,8.83
2023-03-06T00:22:47.880Z,9.68
2023-03-06T00:23:20.155Z,10.18
2023-03-06T00:23:52.624Z,11.30
2023-03-06T00:24:24.949Z,9.25
2023-03-06T00:24:57.335Z,9.18
2023-03-06T00:25:29.673Z,13.32
2023-03-06T00:26:02.165Z,12.85
2023-03-06T00:26:36.102Z,9.73
2023-03-06T00:27:09.069Z,11.75
2023-03-06T00:27:41.544Z,10.10
2023-03-06T00:28:15.944Z,10.70
2023-03-06T00:28:48.320Z,9.27
2023-03-06T00:29:22.725Z,11.57
2023-03-06T00:29:56.462Z,9.20
2023-03-06T00:30:28.752Z,11.63
2023-03-06T00:31:01.472Z,8.55
2023-03-06T00:31:34.814Z,9.50
2023-03-06T00:32:07.578Z,10.15
2023-03-06T00:32:39.951Z,8.10
2023-03-06T00:33:12.379Z,11.10
2023-03-06T00:33:44.733Z,14.88
2023-03-06T00:34:17.033Z,12.38
2023-03-06T00:34:55.573Z,16.30
2023-03-06T00:35:27.928Z,19.52
2023-03-06T00:36:00.249Z,17.75
2023-03-06T00:36:32.910Z,13.52
2023-03-06T00:37:05.220Z,10.98
2023-03-06T00:37:38.408Z,10.45
2023-03-06T00:38:11.878Z,8.25
2023-03-06T00:38:44.170Z,9.70
2023-03-06T00:39:16.580Z,10.52
2023-03-06T00:39:49.839Z,9.30
2023-03-06T00:40:22.344Z,9.10
2023-03-06T00:40:54.669Z,9.63
2023-03-06T00:41:27.324Z,10.25
2023-03-06T00:41:59.641Z,8.70
2023-03-06T00:42:32.037Z,10.15
2023-03-06T00:43:04.385Z,10.13
2023-03-06T00:43:36.808Z,10.55
2023-03-06T00:44:09.183Z,10.30
2023-03-06T00:44:41.494Z,9.95
2023-03-06T00:45:13.974Z,8.90
2023-03-06T00:45:46.366Z,10.07
2023-03-06T00:46:18.737Z,11.43
2023-03-06T00:46:51.009Z,9.32
2023-03-06T00:47:23.330Z,10.25
2023-03-06T00:47:55.672Z,8.80
2023-03-06T00:48:28.528Z,9.55
2023-03-06T00:49:00.858Z,9.25
2023-03-06T00:49:33.389Z,10.30
2023-03-06T00:50:05.803Z,10.18
2023-03-06T00:50:38.421Z,9.15
2023-03-06T00:51:13.809Z,10.20
2023-03-06T00:51:46.230Z,9.43
2023-03-06T00:52:18.580Z,9.43
2023-03-06T00:52:51.219Z,9.77
2023-03-06T00:53:23.536Z,11.20
2023-03-06T00:53:55.835Z,9.38
2023-03-06T00:54:29.840Z,11.40
2023-03-06T00:55:02.267Z,10.20
2023-03-06T00:55:37.913Z,8.02
2023-03-06T00:56:10.938Z,10.82
2023-03-06T00:56:43.334Z,10.35
2023-03-06T00:57:15.636Z,10.25
2023-03-06T00:57:48.089Z,11.68
2023-03-06T00:58:20.429Z,9.13
2023-03-06T00:58:52.828Z,10.10
2023-03-06T00:59:25.174Z,11.07
2023-03-06T00:59:58.105Z,10.00
2023-03-06T01:00:30.383Z,10.90
2023-03-06T01:01:02.762Z,10.25
2023-03-06T01:01:35.149Z,9.07
2023-03-06T01:02:08.000Z,10.68
2023-03-06T01:02:40.501Z,10.30
2023-03-06T01:03:12.816Z,10.05
2023-03-06T01:03:45.134Z,11.57
2023-03-06T01:04:17.481Z,9.93
2023-03-06T01:04:49.850Z,10.88
2023-03-06T01:05:22.219Z,10.43
2023-03-06T01:05:54.510Z,9.80
2023-03-06T01:06:26.840Z,11.23
2023-03-06T01:06:59.259Z,10.30
2023-03-06T01:07:34.311Z,12.40
2023-03-06T01:08:06.852Z,12.32
2023-03-06T01:08:39.189Z,9.98
2023-03-06T01:09:11.692Z,9.82
2023-03-06T01:09:44.015Z,9.82
2023-03-06T01:10:16.378Z,8.52
2023-03-06T01:10:48.739Z,9.80
2023-03-06T01:11:21.752Z,10.40
2023-03-06T01:11:54.187Z,8.55
2023-03-06T01:12:26.491Z,9.95
2023-03-06T01:12:59.033Z,9.82
2023-03-06T01:13:31.302Z,8.25
2023-03-06T01:14:03.835Z,8.65
2023-03-06T01:14:36.365Z,8.63
2023-03-06T01:15:08.879Z,9.27
2023-03-06T01:15:41.303Z,10.05
2023-03-06T01:16:14.604Z,8.48
2023-03-06T01:16:47.504Z,10.47
2023-03-06T01:17:22.570Z,8.90
2023-03-06T01:17:54.930Z,10.48
2023-03-06T01:18:27.266Z,8.57
2023-03-06T01:19:00.939Z,10.55
2023-03-06T01:19:33.244Z,6.97
2023-03-06T01:20:05.991Z,8.48
2023-03-06T01:20:38.250Z,9.48
2023-03-06T01:21:10.560Z,9.15
2023-03-06T01:21:42.826Z,8.32
2023-03-06T01:22:15.135Z,9.20
2023-03-06T01:22:47.439Z,7.85
2023-03-06T01:23:19.758Z,8.80
2023-03-06T01:23:52.825Z,9.15
2023-03-06T01:24:25.980Z,9.45
2023-03-06T01:25:02.197Z,9.20
2023-03-06T01:25:35.154Z,8.27
2023-03-06T01:26:07.601Z,8.48
2023-03-06T01:26:40.058Z,8.50
2023-03-06T01:27:12.346Z,7.78
2023-03-06T01:27:44.633Z,8.37
2023-03-06T01:28:16.986Z,7.53
2023-03-06T01:28:49.313Z,8.63
2023-03-06T01:29:21.585Z,9.30
2023-03-06T01:29:53.857Z,8.32
2023-03-06T01:30:27.646Z,8.35
2023-03-06T01:31:00.883Z,8.70
2023-03-06T01:31:33.665Z,8.27
2023-03-06T01:32:06.236Z,9.48
2023-03-06T01:32:38.634Z,6.95
2023-03-06T01:33:10.974Z,7.57
2023-03-06T01:33:43.379Z,8.45
2023-03-06T01:34:15.881Z,8.00
2023-03-06T01:34:48.159Z,8.27
2023-03-06T01:35:20.632Z,7.70
2023-03-06T01:35:53.045Z,7.47
2023-03-06T01:36:25.376Z,9.80
2023-03-06T01:36:57.726Z,8.85
2023-03-06T01:37:30.460Z,8.45
2023-03-06T01:38:03.359Z,7.32
2023-03-06T01:38:36.163Z,7.57
2023-03-06T01:39:08.572Z,8.25
2023-03-06T01:39:40.969Z,8.85
2023-03-06T01:40:13.783Z,9.80
2023-03-06T01:40:46.137Z,7.88
2023-03-06T01:41:18.492Z,8.00
2023-03-06T01:41:50.842Z,6.97
2023-03-06T01:42:23.130Z,7.38
2023-03-06T01:42:55.387Z,9.60
2023-03-06T01:43:29.903Z,7.32
2023-03-06T01:44:02.237Z,8.03
2023-03-06T01:44:34.880Z,9.38
2023-03-06T01:45:13.270Z,8.68
2023-03-06T01:45:45.540Z,7.68
2023-03-06T01:46:22.842Z,6.63
2023-03-06T01:46:55.237Z,7.18
2023-03-06T01:47:28.017Z,10.40
2023-03-06T01:48:00.283Z,9.30
2023-03-06T01:48:32.866Z,8.60
2023-03-06T01:49:11.442Z,8.18
2023-03-06T01:49:43.831Z,8.40
2023-03-06T01:50:16.188Z,10.07
2023-03-06T01:50:48.771Z,9.60
2023-03-06T01:51:21.894Z,9.00
2023-03-06T01:51:56.121Z,7.82
2023-03-06T01:52:30.510Z,8.60
2023-03-06T01:53:02.978Z,9.88
2023-03-06T01:53:35.333Z,9.77
2023-03-06T01:54:10.166Z,11.15
2023-03-06T01:54:44.683Z,10.60
2023-03-06T01:55:19.144Z,8.20
2023-03-06T01:55:51.490Z,8.98
2023-03-06T01:56:24.165Z,9.63
2023-03-06T01:57:00.413Z,8.73
2023-03-06T01:57:34.628Z,10.77
2023-03-06T01:58:08.964Z,10.77
2023-03-06T01:58:44.029Z,10.35
2023-03-06T01:59:16.742Z,9.82
2023-03-06T01:59:53.259Z,9.50
2023-03-06T02:00:27.429Z,10.70
2023-03-06T02:00:59.815Z,9.13
2023-03-06T02:01:32.321Z,8.60
2023-03-06T02:02:06.370Z,9.32
2023-03-06T02:02:39.692Z,9.32
2023-03-06T02:03:16.079Z,8.38
2023-03-06T02:03:50.011Z,10.68
2023-03-06T02:04:22.454Z,10.32
2023-03-06T02:04:56.332Z,7.82
2023-03-06T02:05:30.060Z,10.05
2023-03-06T02:06:02.609Z,8.55
2023-03-06T02:06:37.111Z,10.30
2023-03-06T02:07:10.082Z,8.45
2023-03-06T02:07:42.778Z,8.68
2023-03-06T02:08:19.754Z,10.88
2023-03-06T02:08:52.574Z,8.52
2023-03-06T02:09:30.052Z,9.85
2023-03-06T02:10:02.429Z,9.52
2023-03-06T02:10:34.718Z,11.07
2023-03-06T02:11:20.906Z,10.02
2023-03-06T02:11:53.291Z,9.73
2023-03-06T02:12:26.707Z,9.73
2023-03-06T02:12:59.221Z,10.07
2023-03-06T02:13:32.372Z,10.70
2023-03-06T02:14:04.689Z,9.18
2023-03-06T02:14:37.249Z,10.00
2023-03-06T02:15:12.193Z,10.98
2023-03-06T02:15:44.565Z,11.55
2023-03-06T02:16:17.882Z,12.70
2023-03-06T02:16:51.253Z,9.77
2023-03-06T02:17:24.217Z,9.95
2023-03-06T02:17:57.038Z,10.30
2023-03-06T02:18:29.622Z,9.77
2023-03-06T02:19:02.602Z,9.07
2023-03-06T02:19:43.206Z,7.22
2023-03-06T02:20:16.201Z,8.35
2023-03-06T02:20:51.204Z,8.15
2023-03-06T02:21:25.596Z,8.85
2023-03-06T02:21:58.255Z,9.30
2023-03-06T02:22:36.299Z,9.68
2023-03-06T02:23:11.529Z,10.63
2023-03-06T02:23:48.315Z,10.47
2023-03-06T02:24:20.829Z,9.93
2023-03-06T02:25:06.867Z,10.95
2023-03-06T02:25:41.209Z,10.93
2023-03-06T02:26:14.298Z,10.60
2023-03-06T02:26:47.108Z,10.07
2023-03-06T02:27:20.007Z,10.48
2023-03-06T02:27:52.391Z,9.27
2023-03-06T02:28:25.191Z,8.93
2023-03-06T02:28:59.428Z,10.07
2023-03-06T02:29:32.959Z,11.00
2023-03-06T02:30:09.119Z,9.27
2023-03-06T02:30:42.405Z,10.77
2023-03-06T02:31:22.364Z,9.77
2023-03-06T02:31:54.659Z,8.98
2023-03-06T02:32:27.195Z,8.48
2023-03-06T02:32:59.685Z,9.95
2023-03-06T02:33:32.370Z,9.38
2023-03-06T02:34:14.115Z,8.98
2023-03-06T02:34:49.254Z,8.05
2023-03-06T02:35:23.053Z,7.97
2023-03-06T02:35:57.829Z,8.98
2023-03-06T02:36:31.209Z,9.85
2023-03-06T02:37:07.200Z,9.85
2023-03-06T02:37:39.474Z,10.45
2023-03-06T02:48:13.659Z,8.95
2023-03-06T02:48:46.096Z,12.63
2023-03-06T02:49:18.390Z,9.95
2023-03-06T02:49:51.369Z,10.88
2023-03-06T02:50:23.744Z,10.60
2023-03-06T02:50:56.016Z,12.75
2023-03-06T02:51:28.579Z,9.75
2023-03-06T02:52:00.938Z,10.45
2023-03-06T02:52:33.967Z,13.57
2023-03-06T02:53:08.313Z,11.32
2023-03-06T02:53:40.668Z,11.05
2023-03-06T02:54:13.042Z,11.43
2023-03-06T02:54:45.338Z,11.05
2023-03-06T02:55:17.828Z,11.68
2023-03-06T02:55:50.578Z,9.23
2023-03-06T02:56:23.189Z,10.18
2023-03-06T02:56:55.501Z,9.48
2023-03-06T02:57:27.973Z,10.57
2023-03-06T02:58:02.117Z,10.05
2023-03-06T02:58:35.500Z,11.43
2023-03-06T02:59:07.805Z,10.63
2023-03-06T02:59:40.212Z,10.77
2023-03-06T03:00:13.060Z,9.90
2023-03-06T03:00:45.606Z,9.55
2023-03-06T03:01:18.300Z,12.48
2023-03-06T03:01:51.047Z,10.98
2023-03-06T03:02:23.605Z,13.27
2023-03-06T03:02:55.960Z,12.98
2023-03-06T03:03:28.440Z,12.07
2023-03-06T03:04:01.019Z,9.10
2023-03-06T03:04:34.187Z,12.32
2023-03-06T03:05:08.000Z,11.70
2023-03-06T03:05:40.813Z,10.52
2023-03-06T03:06:39.439Z,10.15
2023-03-06T03:07:12.269Z,10.88
2023-03-06T03:07:44.692Z,9.40
2023-03-06T03:08:18.452Z,8.10
2023-03-06T03:08:51.213Z,9.52
2023-03-06T03:09:23.604Z,10.88
2023-03-06T03:09:55.912Z,10.82
2023-03-06T03:10:28.521Z,9.25
2023-03-06T03:11:01.501Z,8.50
2023-03-06T03:11:40.112Z,9.63
2023-03-06T03:12:12.494Z,9.63
2023-03-06T03:12:44.795Z,9.88
2023-03-06T03:13:19.741Z,9.23
2023-03-06T03:13:53.344Z,10.00
2023-03-06T03:14:29.043Z,9.40
2023-03-06T03:15:01.943Z,8.85
2023-03-06T03:15:34.469Z,9.43
2023-03-06T03:16:08.901Z,8.45
2023-03-06T03:16:41.222Z,8.87
2023-03-06T03:17:13.663Z,9.30
2023-03-06T03:17:45.926Z,9.80
2023-03-06T03:18:18.232Z,8.73
2023-03-06T03:18:51.506Z,11.23
2023-03-06T03:19:26.628Z,10.68
2023-03-06T03:19:58.958Z,9.38
2023-03-06T03:20:31.270Z,8.73
2023-03-06T03:21:09.886Z,10.82
2023-03-06T03:21:42.237Z,9.82
2023-03-06T03:22:14.836Z,8.57
2023-03-06T03:22:50.309Z,9.90
2023-03-06T03:23:23.006Z,10.23
2023-03-06T03:23:55.730Z,9.48
2023-03-06T03:24:30.143Z,11.77
2023-03-06T03:25:04.204Z,8.55
2023-03-06T03:25:36.699Z,10.55
2023-03-06T03:26:13.656Z,9.45
2023-03-06T03:26:49.491Z,10.13
2023-03-06T03:27:24.233Z,10.25
2023-03-06T03:27:56.873Z,8.83
2023-03-06T03:28:29.402Z,9.05
2023-03-06T03:29:01.846Z,10.18
2023-03-06T03:29:34.238Z,8.48
2023-03-06T03:30:07.101Z,9.90
2023-03-06T03:30:41.625Z,9.38
2023-03-06T03:31:14.859Z,10.43
2023-03-06T03:31:47.292Z,11.27
2023-03-06T03:32:19.710Z,9.80
2023-03-06T03:32:52.394Z,10.10
2023-03-06T03:33:25.130Z,9.67
2023-03-06T03:33:57.553Z,8.30
2023-03-06T03:34:30.182Z,9.10
2023-03-06T03:35:03.441Z,11.13
2023-03-06T03:35:36.149Z,9.52
2023-03-06T03:36:09.222Z,11.75
2023-03-06T03:36:45.933Z,8.60
2023-03-06T03:37:19.127Z,9.90
2023-03-06T03:37:52.802Z,10.88
2023-03-06T03:38:25.275Z,8.35
2023-03-06T03:38:57.975Z,10.53
2023-03-06T03:39:30.490Z,9.13
2023-03-06T03:40:04.384Z,10.00
2023-03-06T03:40:38.690Z,11.35
2023-03-06T03:41:11.159Z,9.30
2023-03-06T03:41:43.640Z,8.18
2023-03-06T03:42:17.299Z,9.43
2023-03-06T03:42:49.594Z,8.77
2023-03-06T03:43:22.075Z,10.07
2023-03-06T03:43:54.368Z,10.57
2023-03-06T03:44:27.405Z,8.43
2023-03-06T03:45:00.227Z,8.85
2023-03-06T03:45:32.792Z,10.40
2023-03-06T03:46:06.398Z,9.25
2023-03-06T03:46:39.716Z,9.23
2023-03-06T03:47:16.829Z,9.82
2023-03-06T03:47:49.122Z,9.05
2023-03-06T03:48:21.813Z,10.80
2023-03-06T03:48:54.232Z,8.32
2023-03-06T03:49:27.014Z,9.82
2023-03-06T03:49:59.772Z,9.10
2023-03-06T03:50:33.491Z,10.15
2023-03-06T03:51:07.489Z,9.55
2023-03-06T03:51:42.170Z,12.05
2023-03-06T03:52:14.800Z,9.40
2023-03-06T03:52:47.064Z,9.45
2023-03-06T03:53:19.453Z,10.57
2023-03-06T03:53:52.243Z,8.90
2023-03-06T03:54:28.074Z,10.18
2023-03-06T03:55:00.934Z,10.55
2023-03-06T03:55:34.211Z,9.53
2023-03-06T03:56:06.722Z,9.40
2023-03-06T03:56:44.724Z,8.38
2023-03-06T03:57:26.212Z,9.82
2023-03-06T03:57:59.933Z,8.90
2023-03-06T03:58:33.530Z,8.68
2023-03-06T03:59:06.128Z,8.68
2023-03-06T03:59:45.190Z,10.05
2023-03-06T04:00:30.685Z,9.43
2023-03-06T04:01:12.642Z,8.88
2023-03-06T04:01:46.434Z,9.37
2023-03-06T04:02:21.953Z,10.13
2023-03-06T04:03:06.173Z,11.32
2023-03-06T04:03:42.994Z,11.45
2023-03-06T04:04:16.451Z,9.32
2023-03-06T04:04:50.467Z,9.73
2023-03-06T04:05:22.949Z,9.77
2023-03-06T04:05:58.129Z,8.25
2023-03-06T04:06:31.002Z,10.20
2023-03-06T04:07:04.568Z,9.88
2023-03-06T04:07:37.061Z,10.30
2023-03-06T04:08:09.659Z,9.05
2023-03-06T04:08:45.764Z,10.27
2023-03-06T04:09:18.149Z,10.20
2023-03-06T04:09:51.061Z,10.57
2023-03-06T04:10:24.052Z,11.13
2023-03-06T04:10:56.756Z,9.25
2023-03-06T04:11:30.161Z,9.93
2023-03-06T04:12:02.481Z,10.02
2023-03-06T04:12:36.201Z,8.30
2023-03-06T04:13:10.083Z,9.13
2023-03-06T04:13:46.265Z,9.13
2023-03-06T04:14:18.981Z,8.55
2023-03-06T04:14:51.298Z,11.20
2023-03-06T04:15:23.604Z,12.05
2023-03-06T04:15:56.481Z,10.55
2023-03-06T04:16:29.657Z,11.45
2023-03-06T04:17:01.986Z,12.18
2023-03-06T04:17:35.351Z,12.43
2023-03-06T04:18:09.791Z,8.70
2023-03-06T04:18:42.115Z,9.27
2023-03-06T04:19:14.446Z,8.40
2023-03-06T04:19:46.740Z,10.35
2023-03-06T04:20:19.649Z,9.57
2023-03-06T04:20:53.147Z,8.48
2023-03-06T04:21:25.829Z,8.77
2023-03-06T04:21:58.314Z,7.68
2023-03-06T04:22:30.831Z,8.52
2023-03-06T04:23:03.246Z,9.05
2023-03-06T04:23:35.784Z,8.38
2023-03-06T04:24:09.057Z,9.60
2023-03-06T04:24:41.366Z,8.32
2023-03-06T04:25:14.425Z,9.20
2023-03-06T04:25:47.234Z,9.10
2023-03-06T04:26:19.557Z,11.13
2023-03-06T04:26:51.967Z,8.82
2023-03-06T04:27:24.275Z,11.68
2023-03-06T04:27:56.760Z,12.35
2023-03-06T04:28:29.289Z,12.20
2023-03-06T04:29:02.448Z,9.60
2023-03-06T04:29:34.995Z,10.37
2023-03-06T04:30:07.704Z,10.13
2023-03-06T04:30:40.987Z,10.27
2023-03-06T04:31:13.668Z,9.73
2023-03-06T04:31:46.128Z,11.68
2023-03-06T04:32:21.244Z,9.98
2023-03-06T04:32:53.867Z,10.98
2023-03-06T04:33:26.223Z,8.55
2023-03-06T04:33:59.627Z,7.90
2023-03-06T04:34:33.021Z,8.13
2023-03-06T04:35:06.108Z,9.13
2023-03-06T04:35:43.838Z,11.18
2023-03-06T04:36:26.686Z,10.23
2023-03-06T04:37:02.818Z,8.95
2023-03-06T04:37:35.208Z,10.02
2023-03-06T04:38:07.628Z,10.57
2023-03-06T04:38:39.971Z,8.85
2023-03-06T04:39:13.203Z,10.32
2023-03-06T04:39:45.618Z,8.48
2023-03-06T04:40:19.181Z,9.82
2023-03-06T04:40:51.603Z,8.60
2023-03-06T04:41:24.270Z,10.38
2023-03-06T04:41:56.753Z,8.77
2023-03-06T04:42:29.303Z,10.10
2023-03-06T04:43:02.170Z,9.93
2023-03-06T04:43:34.478Z,8.60
2023-03-06T04:44:06.984Z,10.35
2023-03-06T04:44:39.280Z,9.38
2023-03-06T04:45:11.968Z,10.73
2023-03-06T04:45:44.516Z,8.52
2023-03-06T04:46:16.938Z,10.30
2023-03-06T04:46:49.206Z,9.75
2023-03-06T04:47:21.704Z,9.93
2023-03-06T04:47:54.115Z,10.40
2023-03-06T04:48:26.404Z,10.38
2023-03-06T04:48:58.716Z,13.13
2023-03-06T04:49:30.978Z,11.82
2023-03-06T04:50:04.152Z,11.75
2023-03-06T04:50:38.204Z,12.00
2023-03-06T04:51:13.804Z,11.40
2023-03-06T04:51:46.116Z,11.00
2023-03-06T04:52:18.405Z,11.93
2023-03-06T04:52:51.142Z,12.20
2023-03-06T04:53:23.404Z,11.55
2023-03-06T04:53:55.974Z,11.20
2023-03-06T04:54:28.250Z,12.80
2023-03-06T04:55:00.531Z,15.15
2023-03-06T04:55:32.990Z,13.73
2023-03-06T04:56:06.358Z,12.18
2023-03-06T04:56:38.675Z,12.40
2023-03-06T04:57:11.110Z,12.90
2023-03-06T04:57:44.551Z,12.63
2023-03-06T04:58:16.879Z,15.65
2023-03-06T04:58:49.247Z,13.85
2023-03-06T04:59:21.609Z,15.82
2023-03-06T04:59:53.874Z,16.30
2023-03-06T05:00:31.797Z,18.02
2023-03-06T05:01:04.425Z,17.98
2023-03-06T05:01:36.767Z,15.20
2023-03-06T05:02:09.180Z,15.55
2023-03-06T05:02:42.310Z,15.13
2023-03-06T05:03:14.786Z,14.13
2023-03-06T05:03:47.093Z,14.80
2023-03-06T05:04:19.396Z,16.98
2023-03-06T05:04:51.761Z,16.35
2023-03-06T05:05:24.569Z,14.40
2023-03-06T05:05:56.843Z,14.38
2023-03-06T05:06:29.181Z,15.70
2023-03-06T05:07:01.519Z,14.90
2023-03-06T05:07:34.206Z,14.45
2023-03-06T05:08:06.622Z,14.77
2023-03-06T05:08:39.002Z,16.45
2023-03-06T05:09:11.285Z,23.33
2023-03-06T05:09:43.530Z,26.35
2023-03-06T05:10:16.667Z,27.48
2023-03-06T05:10:53.370Z,34.80
2023-03-06T05:11:25.648Z,37.35
2023-03-06T05:11:58.144Z,35.38
2023-03-06T05:12:30.616Z,33.97
2023-03-06T05:13:02.975Z,77.13
2023-03-06T05:13:35.237Z,109.23
2023-03-06T05:14:07.560Z,91.47
2023-03-06T05:14:39.890Z,37.90
2023-03-06T05:15:12.624Z,20.92
2023-03-06T05:15:44.966Z,19.15
2023-03-06T05:16:17.486Z,14.73
2023-03-06T05:16:49.931Z,16.50
2023-03-06T05:17:22.208Z,14.43
2023-03-06T05:17:54.545Z,15.55
2023-03-06T05:18:26.883Z,12.02
2023-03-06T05:18:59.302Z,13.70
2023-03-06T05:19:31.681Z,11.30
2023-03-06T05:20:06.479Z,10.57
2023-03-06T05:20:38.754Z,12.80
2023-03-06T05:21:11.096Z,13.88
2023-03-06T05:21:43.440Z,10.57
2023-03-06T05:22:15.742Z,12.02
2023-03-06T05:22:48.103Z,13.32
2023-03-06T05:23:20.371Z,14.50
2023-03-06T05:23:52.681Z,13.10
2023-03-06T05:24:24.971Z,11.35
2023-03-06T05:24:57.609Z,13.07
2023-03-06T05:25:29.889Z,12.05
2023-03-06T05:26:05.269Z,14.88
2023-03-06T05:26:37.644Z,13.27
2023-03-06T05:27:09.960Z,16.08
2023-03-06T05:27:42.437Z,16.83
2023-03-06T05:28:14.711Z,13.45
2023-03-06T05:28:47.008Z,16.75
2023-03-06T05:29:19.439Z,15.35
2023-03-06T05:29:51.743Z,16.57
2023-03-06T05:30:24.970Z,14.82
2023-03-06T05:30:57.296Z,15.55
2023-03-06T05:31:29.628Z,16.83
2023-03-06T05:32:02.177Z,16.27
2023-03-06T05:32:35.819Z,16.13
2023-03-06T05:33:08.294Z,16.90
2023-03-06T05:33:40.995Z,17.15
2023-03-06T05:34:13.919Z,18.42
2023-03-06T05:34:46.268Z,19.58
2023-03-06T05:35:19.995Z,17.17
2023-03-06T05:35:52.488Z,18.58
2023-03-06T05:36:25.211Z,26.42
2023-03-06T05:36:57.595Z,33.25
2023-03-06T05:37:30.030Z,33.75
2023-03-06T05:38:02.557Z,24.70
2023-03-06T05:38:34.841Z,26.52
2023-03-06T05:39:07.186Z,27.30
2023-03-06T05:39:39.505Z,28.35
2023-03-06T05:40:13.990Z,23.58
2023-03-06T05:40:46.488Z,24.10
2023-03-06T05:41:18.757Z,23.02
2023-03-06T05:41:51.017Z,22.02
2023-03-06T05:42:23.447Z,23.05
2023-03-06T05:42:56.139Z,23.75
2023-03-06T05:43:28.408Z,25.80
2023-03-06T05:44:00.709Z,26.15
2023-03-06T05:44:33.863Z,27.55
2023-03-06T05:45:06.369Z,24.35
2023-03-06T05:45:39.540Z,28.85
2023-03-06T05:46:11.986Z,28.55
2023-03-06T05:46:44.310Z,30.70
2023-03-06T05:47:16.791Z,29.75
2023-03-06T05:47:49.057Z,26.95
2023-03-06T05:48:21.470Z,26.27
2023-03-06T05:48:57.665Z,23.33
2023-03-06T05:49:34.138Z,23.40
2023-03-06T05:50:08.469Z,29.48
2023-03-06T05:50:41.087Z,24.67
2023-03-06T05:51:13.482Z,26.23
2023-03-06T05:51:45.756Z,56.85
2023-03-06T05:52:18.057Z,110.25
2023-03-06T05:52:51.768Z,98.55
2023-03-06T05:53:24.593Z,119.38
2023-03-06T05:53:57.120Z,76.15
2023-03-06T05:54:29.556Z,53.75
2023-03-06T05:55:01.953Z,36.53
2023-03-06T05:55:34.242Z,34.28
2023-03-06T05:56:09.090Z,35.40
2023-03-06T05:56:42.896Z,31.45
2023-03-06T05:57:15.253Z,31.85
2023-03-06T05:57:48.251Z,35.58
2023-03-06T05:58:20.598Z,37.85
2023-03-06T05:58:52.944Z,34.53
2023-03-06T05:59:29.200Z,27.65
2023-03-06T06:00:01.492Z,27.77
2023-03-06T06:00:33.863Z,25.27
2023-03-06T06:01:10.316Z,23.90
2023-03-06T06:01:42.652Z,29.77
2023-03-06T06:02:15.598Z,26.67
2023-03-06T06:02:47.923Z,23.87
2023-03-06T06:03:20.566Z,38.97
2023-03-06T06:03:53.032Z,25.15
2023-03-06T06:04:26.476Z,27.40
2023-03-06T06:04:58.886Z,26.20
2023-03-06T06:05:31.243Z,26.75
2023-03-06T06:06:04.548Z,21.85
2023-03-06T06:06:36.828Z,22.85
2023-03-06T06:07:12.752Z,23.67
2023-03-06T06:07:45.610Z,21.83
2023-03-06T06:08:18.182Z,23.23
2023-03-06T06:08:50.453Z,22.02
2023-03-06T06:09:23.704Z,25.10
2023-03-06T06:09:56.046Z,23.85
2023-03-06T06:10:28.411Z,21.23
2023-03-06T06:11:00.962Z,18.00
2023-03-06T06:11:33.247Z,18.35
2023-03-06T06:12:05.858Z,17.83
2023-03-06T06:12:38.216Z,14.35
2023-03-06T06:13:10.564Z,17.23
2023-03-06T06:13:42.944Z,16.40
2023-03-06T06:14:15.286Z,16.85
2023-03-06T06:14:47.617Z,17.95
2023-03-06T06:15:19.903Z,14.40
2023-03-06T06:15:52.470Z,17.33
2023-03-06T06:16:24.824Z,15.30
2023-03-06T06:16:57.135Z,14.73
2023-03-06T06:17:29.604Z,17.38
2023-03-06T06:18:01.881Z,20.38
2023-03-06T06:18:34.269Z,17.50
2023-03-06T06:19:07.076Z,19.25
2023-03-06T06:19:39.432Z,17.90
2023-03-06T06:20:11.925Z,18.08
2023-03-06T06:20:44.337Z,17.30
2023-03-06T06:21:16.724Z,24.20
2023-03-06T06:21:52.686Z,19.30
2023-03-06T06:22:25.103Z,25.48
2023-03-06T06:22:57.460Z,24.65
2023-03-06T06:23:29.720Z,23.42
2023-03-06T06:24:02.058Z,23.25
2023-03-06T06:24:34.366Z,23.27
2023-03-06T06:25:06.936Z,26.13
2023-03-06T06:25:39.210Z,26.65
2023-03-06T06:26:12.153Z,26.05
2023-03-06T06:26:45.013Z,26.40
2023-03-06T06:27:17.281Z,23.92
2023-03-06T06:27:49.666Z,21.95
2023-03-06T06:28:21.972Z,24.02
2023-03-06T06:28:54.260Z,20.02
2023-03-06T06:29:27.235Z,21.92
2023-03-06T06:30:00.088Z,26.05
2023-03-06T06:30:33.197Z,23.30
2023-03-06T06:31:10.109Z,24.48
2023-03-06T06:31:42.409Z,25.30
2023-03-06T06:32:14.967Z,23.70
2023-03-06T06:32:47.279Z,22.10
2023-03-06T06:33:19.571Z,22.02
2023-03-06T06:33:51.859Z,26.80
2023-03-06T06:34:24.520Z,23.35
2023-03-06T06:34:57.092Z,23.25
2023-03-06T06:35:29.451Z,25.05
2023-03-06T06:36:01.834Z,22.73
2023-03-06T06:36:34.490Z,26.15
2023-03-06T06:37:07.250Z,22.33
2023-03-06T06:37:39.793Z,18.23
2023-03-06T06:38:12.072Z,19.05
2023-03-06T06:38:44.575Z,21.55
2023-03-06T06:39:18.176Z,17.23
2023-03-06T06:39:50.949Z,17.55
2023-03-06T06:40:24.563Z,19.50
2023-03-06T06:41:30.662Z,19.67
2023-03-06T06:42:03.019Z,18.70
2023-03-06T06:42:44.105Z,21.48
2023-03-06T06:43:16.406Z,20.10
2023-03-06T06:43:48.716Z,23.58
2023-03-06T06:44:21.007Z,23.55
2023-03-06T06:44:53.386Z,23.00
2023-03-06T06:45:26.090Z,23.13
2023-03-06T06:46:17.361Z,21.30
2023-03-06T06:47:43.705Z,20.48
2023-03-06T06:48:17.536Z,21.25
2023-03-06T06:48:54.916Z,20.65
2023-03-06T06:49:27.403Z,23.05
2023-03-06T06:50:00.096Z,20.35
2023-03-06T06:50:32.419Z,19.02
2023-03-06T06:51:04.977Z,22.23
2023-03-06T06:51:37.670Z,20.38
2023-03-06T06:52:10.350Z,21.83
2023-03-06T06:52:42.690Z,21.33
2023-03-06T06:53:15.043Z,20.20
2023-03-06T06:53:47.357Z,21.40
2023-03-06T06:54:20.357Z,19.42
2023-03-06T06:54:53.018Z,22.30
2023-03-06T06:55:25.365Z,20.13
2023-03-06T06:56:00.302Z,21.05
2023-03-06T06:56:32.665Z,20.35
2023-03-06T06:57:05.066Z,21.77
2023-03-06T06:57:37.365Z,19.13
2023-03-06T06:58:09.741Z,19.67
2023-03-06T06:58:42.132Z,20.57
2023-03-06T06:59:17.171Z,21.52
2023-03-06T06:59:52.429Z,21.15
2023-03-06T07:00:26.106Z,19.80
2023-03-06T07:01:04.612Z,19.42
2023-03-06T07:01:37.114Z,19.65
2023-03-06T07:02:13.001Z,21.38
2023-03-06T07:02:49.288Z,20.02
2023-03-06T07:03:21.752Z,21.55
2023-03-06T07:03:54.435Z,23.85
2023-03-06T07:04:26.835Z,20.47
2023-03-06T07:05:06.369Z,19.25
2023-03-06T07:05:38.714Z,23.30
2023-03-06T07:06:11.078Z,22.33
2023-03-06T07:06:43.375Z,26.73
2023-03-06T07:07:16.057Z,29.75
2023-03-06T07:07:48.651Z,31.67
2023-03-06T07:08:20.913Z,32.95
2023-03-06T07:08:53.394Z,31.30
2023-03-06T07:09:26.122Z,35.60
2023-03-06T07:09:58.469Z,36.30
2023-03-06T07:10:30.830Z,36.63
2023-03-06T07:11:07.643Z,30.35
2023-03-06T07:11:39.962Z,33.05
2023-03-06T07:12:12.256Z,28.85
2023-03-06T07:12:44.671Z,25.23
2023-03-06T07:13:17.260Z,25.08
2023-03-06T07:13:49.553Z,21.83
2023-03-06T07:14:21.854Z,24.92
2023-03-06T07:14:54.344Z,23.30
2023-03-06T07:15:27.358Z,21.40
2023-03-06T07:15:59.647Z,42.47
2023-03-06T07:16:31.959Z,35.28
2023-03-06T07:17:04.274Z,43.30
2023-03-06T07:17:36.610Z,37.22
2023-03-06T07:18:08.979Z,36.78
2023-03-06T07:18:42.039Z,35.22
2023-03-06T07:19:14.316Z,33.58
2023-03-06T07:19:46.815Z,32.90
2023-03-06T07:20:20.094Z,30.63
2023-03-06T07:20:53.902Z,30.57
2023-03-06T07:21:26.162Z,27.17
2023-03-06T07:22:00.318Z,20.98
2023-03-06T07:22:44.780Z,22.60
2023-03-06T07:23:17.233Z,22.23
2023-03-06T07:23:49.760Z,22.67
2023-03-06T07:24:22.190Z,21.00